Time;durP1;ratioP1;P1;durP2;ratioP2;P2;SDS_P1;SDS_P2;PMS_P1;PMS_P2;Temp;Humidity;BMP_temperature;BMP_pressure;BME280_temperature;BME280_humidity;BME280_pressure;Samples;Min_cycle;Max_cycle;Signal;HPM_P1;HPM_P2
2022/12/29 00:01:33;;;;;;;42.08;26.73;;;4.50;99.90;;;;;;5030848;28;20025;-59
2022/12/29 00:03:59;;;;;;;40.88;27.60;;;4.50;99.90;;;;;;5030509;28;20038;-59
2022/12/29 00:06:25;;;;;;;43.58;28.35;;;4.40;99.90;;;;;;5030703;28;20084;-57
2022/12/29 00:08:51;;;;;;;81.68;43.42;;;4.40;99.90;;;;;;5030561;28;20409;-58
2022/12/29 00:11:19;;;;;;;114.68;57.67;;;4.70;99.90;;;;;;5067030;28;20044;-58
2022/12/29 00:16:30;;;;;;;44.08;27.63;;;4.90;99.90;;;;;;5072709;28;20117;-59
2022/12/29 00:18:57;;;;;;;50.85;29.08;;;4.60;99.90;;;;;;5073037;28;20028;-58
2022/12/29 00:35:42;;;;;;;39.50;26.83;;;4.10;99.90;;;;;;5072534;28;20063;-60
2022/12/29 00:46:23;;;;;;;45.78;31.75;;;4.00;99.90;;;;;;5076581;28;20035;-58
2022/12/29 00:51:33;;;;;;;162.48;70.72;;;4.20;99.90;;;;;;5076187;28;20070;-57
2022/12/29 00:53:59;;;;;;;174.05;78.75;;;4.50;99.90;;;;;;5075581;28;20049;-58
2022/12/29 00:56:25;;;;;;;184.48;82.35;;;4.70;99.90;;;;;;5040867;28;20037;-57
2022/12/29 00:58:51;;;;;;;315.95;134.50;;;4.90;99.90;;;;;;5076126;28;20021;-58
2022/12/29 01:01:17;;;;;;;429.98;188.05;;;5.00;99.90;;;;;;5040511;28;20119;-57
2022/12/29 01:03:42;;;;;;;266.80;111.70;;;5.10;99.90;;;;;;5040445;28;20037;-56
2022/12/29 01:06:11;;;;;;;260.98;110.13;;;5.10;99.90;;;;;;5075666;28;20052;-57
2022/12/29 01:08:36;;;;;;;77.65;41.22;;;5.10;99.90;;;;;;5074915;28;20036;-59
2022/12/29 01:11:05;;;;;;;54.22;32.40;;;5.00;99.90;;;;;;5056615;28;20032;-59
2022/12/29 01:13:31;;;;;;;54.40;33.05;;;4.90;99.90;;;;;;5075149;28;20021;-60
2022/12/29 01:15:57;;;;;;;41.72;27.35;;;4.90;99.90;;;;;;5075558;28;20032;-60
2022/12/29 01:18:24;;;;;;;37.45;26.02;;;4.80;99.90;;;;;;5075555;28;20063;-60
2022/12/29 01:20:50;;;;;;;37.53;25.10;;;4.70;99.90;;;;;;5075374;28;20107;-58
2022/12/29 01:23:16;;;;;;;33.72;20.73;;;4.80;99.90;;;;;;5075396;28;20108;-56
2022/12/29 01:25:42;;;;;;;27.70;20.83;;;4.30;99.90;;;;;;5075408;28;20032;-57
2022/12/29 01:28:08;;;;;;;27.63;19.23;;;4.00;99.90;;;;;;5075557;28;20474;-56
2022/12/29 01:30:36;;;;;;;32.03;20.83;;;4.20;99.90;;;;;;5075392;28;20024;-58
2022/12/29 01:33:02;;;;;;;30.80;21.55;;;4.00;99.90;;;;;;5075104;28;20387;-60
2022/12/29 01:35:27;;;;;;;31.60;20.90;;;3.80;99.90;;;;;;5075177;28;20103;-60
2022/12/29 01:37:53;;;;;;;26.85;20.80;;;3.90;99.90;;;;;;5075086;28;20102;-59
2022/12/29 01:40:19;;;;;;;32.85;20.40;;;4.10;99.90;;;;;;5075247;28;20112;-59
2022/12/29 01:42:45;;;;;;;30.33;19.77;;;4.30;99.90;;;;;;5075146;28;20063;-56
2022/12/29 01:45:16;;;;;;;30.15;18.48;;;4.70;99.90;;;;;;5075125;28;20094;-60
2022/12/29 01:48:05;;;;;;;23.60;17.40;;;4.30;99.90;;;;;;5039891;28;20044;-56
2022/12/29 01:50:36;;;;;;;27.20;18.33;;;4.10;99.90;;;;;;5074780;28;20118;-60
2022/12/29 01:53:22;;;;;;;27.88;19.08;;;4.10;99.90;;;;;;5074424;28;20052;-58
2022/12/29 01:55:58;;;;;;;24.88;17.77;;;3.70;99.90;;;;;;5074781;28;20017;-58
2022/12/29 01:58:30;;;;;;;24.45;16.85;;;3.80;99.90;;;;;;5074722;28;20030;-55
2022/12/29 02:00:56;;;;;;;24.77;17.17;;;3.70;99.90;;;;;;5074724;28;20068;-59
2022/12/29 02:03:26;;;;;;;27.65;17.58;;;3.70;99.90;;;;;;5074538;28;20407;-58
2022/12/29 02:06:08;;;;;;;26.80;15.77;;;3.80;99.90;;;;;;5074473;28;20037;-56
2022/12/29 02:08:34;;;;;;;21.80;14.25;;;3.40;99.90;;;;;;5074678;28;20116;-59
2022/12/29 02:11:01;;;;;;;24.67;16.08;;;3.00;99.90;;;;;;5072927;28;20111;-59
2022/12/29 02:13:28;;;;;;;20.40;12.45;;;2.80;99.90;;;;;;5074781;28;20098;-57
2022/12/29 02:16:16;;;;;;;21.38;12.13;;;2.70;99.90;;;;;;5039186;28;20128;-57
2022/12/29 02:19:00;;;;;;;23.70;16.08;;;2.50;99.90;;;;;;5074713;28;20021;-57
2022/12/29 02:22:03;;;;;;;20.10;13.50;;;2.70;99.90;;;;;;5074321;28;20376;-60
2022/12/29 02:24:44;;;;;;;21.13;14.68;;;2.70;99.90;;;;;;5074357;28;20430;-57
2022/12/29 02:27:34;;;;;;;23.40;14.95;;;2.80;99.90;;;;;;5074318;28;20404;-57
2022/12/29 02:30:37;;;;;;;19.50;14.18;;;2.90;99.90;;;;;;5074001;28;20032;-56
2022/12/29 02:33:21;;;;;;;19.80;12.27;;;3.10;99.90;;;;;;5074078;28;20078;-59
2022/12/29 02:36:02;;;;;;;18.45;13.35;;;3.30;99.90;;;;;;5073897;28;20028;-57
2022/12/29 02:38:56;;;;;;;19.58;13.95;;;3.50;99.90;;;;;;5074251;28;20029;-59
2022/12/29 02:41:32;;;;;;;23.08;14.10;;;3.90;99.90;;;;;;5074266;28;20380;-58
2022/12/29 02:44:26;;;;;;;18.17;13.55;;;4.20;99.90;;;;;;5073645;28;20029;-60
2022/12/29 02:46:59;;;;;;;46.33;26.17;;;4.10;99.90;;;;;;5073944;28;20039;-59
2022/12/29 02:49:46;;;;;;;34.22;20.17;;;4.10;99.90;;;;;;5073778;28;20017;-57
2022/12/29 02:52:17;;;;;;;30.42;18.23;;;3.90;99.90;;;;;;5073926;28;20021;-58
2022/12/29 02:54:44;;;;;;;20.35;14.25;;;3.90;99.90;;;;;;5073883;28;20182;-59
2022/12/29 02:57:21;;;;;;;22.50;15.25;;;3.80;99.90;;;;;;5073719;28;20024;-57
2022/12/29 02:59:51;;;;;;;25.45;16.60;;;3.90;99.90;;;;;;5073619;28;20047;-59
2022/12/29 03:02:30;;;;;;;23.05;15.18;;;4.10;99.90;;;;;;5073903;28;20103;-58
2022/12/29 03:05:17;;;;;;;24.92;15.43;;;4.20;99.90;;;;;;5072617;28;20480;-57
2022/12/29 03:08:03;;;;;;;22.15;16.02;;;4.10;99.90;;;;;;5073404;28;20024;-57
2022/12/29 03:10:51;;;;;;;24.13;16.80;;;3.70;99.90;;;;;;5073660;28;20028;-60
2022/12/29 03:16:36;;;;;;;31.15;18.95;;;4.20;99.90;;;;;;5074166;28;20074;-57
2022/12/29 03:19:14;;;;;;;24.77;16.15;;;4.10;99.90;;;;;;5073131;28;20490;-57
2022/12/29 03:24:36;;;;;;;26.15;16.85;;;4.30;99.90;;;;;;5073330;28;20044;-58
2022/12/29 03:27:05;;;;;;;26.65;17.73;;;4.60;99.90;;;;;;5073310;28;20467;-60
2022/12/29 03:29:35;;;;;;;23.23;16.17;;;4.60;99.90;;;;;;5037883;28;20115;-60
2022/12/29 03:32:03;;;;;;;26.48;17.33;;;4.70;99.90;;;;;;5072939;28;20059;-59
2022/12/29 03:34:30;;;;;;;33.30;22.23;;;4.60;99.90;;;;;;5073602;28;20033;-58
2022/12/29 03:37:02;;;;;;;25.92;18.38;;;4.70;99.90;;;;;;5072804;28;20039;-58
2022/12/29 03:39:28;;;;;;;33.80;21.92;;;4.90;99.90;;;;;;5073067;28;20603;-61
2022/12/29 03:42:02;;;;;;;28.38;19.80;;;5.00;99.90;;;;;;5037584;28;20037;-55
2022/12/29 03:44:40;;;;;;;31.88;19.45;;;5.10;99.90;;;;;;5073490;28;20123;-61
2022/12/29 03:47:07;;;;;;;54.80;33.47;;;4.90;99.90;;;;;;5072706;28;20033;-57
2022/12/29 03:49:33;;;;;;;37.40;24.38;;;4.70;99.90;;;;;;5071110;28;20065;-59
2022/12/29 03:51:59;;;;;;;32.30;21.80;;;5.00;99.90;;;;;;5072675;28;20087;-59
2022/12/29 03:54:24;;;;;;;26.13;18.08;;;5.10;99.90;;;;;;5072812;28;20079;-59
2022/12/29 03:56:50;;;;;;;30.65;20.27;;;4.70;99.90;;;;;;5037555;28;20072;-57
2022/12/29 03:59:16;;;;;;;28.75;20.92;;;5.00;99.90;;;;;;5073285;28;20024;-57
2022/12/29 04:01:42;;;;;;;29.92;20.33;;;;;;;;;;5037771;28;20033;-59
2022/12/29 04:04:08;;;;;;;30.98;19.58;;;5.40;99.90;;;;;;5072597;28;20388;-57
2022/12/29 04:06:34;;;;;;;45.33;23.73;;;5.50;99.90;;;;;;5072802;28;20024;-57
2022/12/29 04:09:01;;;;;;;91.47;44.58;;;5.50;99.90;;;;;;5073068;28;20036;-56
2022/12/29 04:11:26;;;;;;;51.13;26.92;;;5.60;99.90;;;;;;5037862;28;20079;-56
2022/12/29 04:13:52;;;;;;;68.22;38.22;;;5.50;99.90;;;;;;5072362;28;20029;-59
2022/12/29 04:16:18;;;;;;;45.17;27.70;;;5.50;99.90;;;;;;5073660;28;20032;-60
2022/12/29 04:18:44;;;;;;;47.25;27.92;;;5.60;99.90;;;;;;5025001;28;20039;-56
2022/12/29 04:21:09;;;;;;;32.58;21.10;;;5.70;99.90;;;;;;5076786;28;20752;-59
2022/12/29 04:23:39;;;;;;;33.70;20.92;;;5.90;99.90;;;;;;5076708;28;20035;-60
2022/12/29 04:26:09;;;;;;;37.13;23.27;;;5.90;99.90;;;;;;5076932;28;20468;-57
2022/12/29 04:28:36;;;;;;;45.83;28.38;;;5.70;99.90;;;;;;5074842;28;20127;-58
2022/12/29 04:31:03;;;;;;;108.45;65.50;;;5.70;99.90;;;;;;5076374;28;20107;-56
2022/12/29 04:33:29;;;;;;;50.63;33.53;;;5.50;99.90;;;;;;5076938;28;20046;-57
2022/12/29 04:35:55;;;;;;;49.92;32.90;;;5.20;99.90;;;;;;5076318;28;20021;-56
2022/12/29 04:38:22;;;;;;;47.55;30.15;;;5.30;99.90;;;;;;5076551;28;20086;-58
2022/12/29 04:40:49;;;;;;;35.42;25.00;;;5.40;99.90;;;;;;5073167;28;20487;-59
2022/12/29 04:43:16;;;;;;;35.65;24.35;;;5.40;99.90;;;;;;5076363;28;20032;-61
2022/12/29 04:45:45;;;;;;;41.90;25.48;;;5.30;99.90;;;;;;5076126;28;20037;-57
2022/12/29 04:48:12;;;;;;;37.17;24.52;;;5.50;99.90;;;;;;5033910;28;20124;-56
2022/12/29 04:50:38;;;;;;;38.42;24.15;;;5.50;99.90;;;;;;5034156;28;20509;-57
2022/12/29 04:53:04;;;;;;;38.35;24.95;;;5.50;99.90;;;;;;5033759;28;20049;-55
2022/12/29 04:55:30;;;;;;;35.67;24.25;;;5.60;99.90;;;;;;5034004;28;20035;-59
2022/12/29 04:57:55;;;;;;;38.92;26.63;;;5.40;99.90;;;;;;5033812;28;20596;-60
2022/12/29 05:00:21;;;;;;;37.08;26.02;;;5.40;99.90;;;;;;5034080;28;20083;-55
2022/12/29 05:02:47;;;;;;;34.83;25.75;;;5.50;99.90;;;;;;5033702;28;20037;-56
2022/12/29 05:05:13;;;;;;;67.90;43.70;;;5.50;99.90;;;;;;5033988;28;20041;-60
2022/12/29 05:07:39;;;;;;;54.88;36.45;;;5.60;99.90;;;;;;5053221;28;20040;-60
2022/12/29 05:10:05;;;;;;;52.22;35.60;;;5.70;99.90;;;;;;5036854;28;20039;-58
2022/12/29 05:12:33;;;;;;;45.67;31.35;;;;;;;;;;5049578;28;20024;-60
2022/12/29 05:14:59;;;;;;;44.40;29.85;;;5.90;99.90;;;;;;5059788;28;20099;-56
2022/12/29 05:17:25;;;;;;;42.95;30.33;;;6.00;99.90;;;;;;5054575;28;20419;-58
2022/12/29 05:19:51;;;;;;;46.22;32.13;;;5.80;99.90;;;;;;5086368;28;20046;-58
2022/12/29 05:22:16;;;;;;;44.92;31.67;;;5.90;99.90;;;;;;5099447;28;20023;-59
2022/12/29 05:24:42;;;;;;;44.08;31.27;;;5.90;99.90;;;;;;5064431;28;20047;-58
2022/12/29 05:27:08;;;;;;;41.97;28.40;;;5.50;99.90;;;;;;5083766;28;20035;-60
2022/12/29 05:29:34;;;;;;;39.78;28.42;;;5.40;99.90;;;;;;5113446;28;20410;-59
2022/12/29 05:31:59;;;;;;;38.60;27.42;;;5.50;99.90;;;;;;5022710;28;20044;-56
2022/12/29 05:34:25;;;;;;;45.10;29.55;;;5.50;99.90;;;;;;5075831;28;20043;-58
2022/12/29 05:36:51;;;;;;;56.28;34.05;;;5.20;99.90;;;;;;5052880;28;20035;-58
2022/12/29 05:39:17;;;;;;;43.28;29.95;;;5.00;99.90;;;;;;5100536;28;20020;-59
2022/12/29 05:41:43;;;;;;;65.82;39.22;;;4.60;99.90;;;;;;5100718;28;20479;-59
2022/12/29 05:44:10;;;;;;;61.65;38.75;;;4.90;99.90;;;;;;5031715;28;20048;-57
2022/12/29 05:46:36;;;;;;;55.20;31.48;;;;;;;;;;5101806;28;20517;-61
2022/12/29 05:49:02;;;;;;;48.50;31.17;;;5.40;99.90;;;;;;5103456;28;20023;-58
2022/12/29 05:51:28;;;;;;;53.85;30.23;;;5.30;99.90;;;;;;5101015;28;20387;-57
2022/12/29 05:53:54;;;;;;;52.15;32.72;;;;;;;;;;5047635;28;20388;-58
2022/12/29 05:56:20;;;;;;;53.63;30.52;;;5.70;99.90;;;;;;5082153;28;20028;-61
2022/12/29 05:58:46;;;;;;;59.13;40.60;;;5.70;99.90;;;;;;5074963;28;20102;-60
2022/12/29 06:01:11;;;;;;;56.53;37.17;;;5.80;99.90;;;;;;5074425;28;20028;-58
2022/12/29 06:03:37;;;;;;;49.63;34.33;;;5.80;99.90;;;;;;5092276;28;20032;-61
2022/12/29 06:06:03;;;;;;;47.15;33.53;;;5.70;99.90;;;;;;5075612;28;20028;-58
2022/12/29 06:08:29;;;;;;;49.97;30.30;;;5.70;99.90;;;;;;5032950;28;20395;-61
2022/12/29 06:10:55;;;;;;;48.53;31.98;;;5.70;99.90;;;;;;5084091;28;20033;-58
2022/12/29 06:13:21;;;;;;;54.15;35.35;;;5.80;99.90;;;;;;5083217;28;20035;-58
2022/12/29 06:15:48;;;;;;;61.63;38.60;;;5.60;99.90;;;;;;5071616;28;20029;-59
2022/12/29 06:18:14;;;;;;;47.05;34.00;;;5.50;99.90;;;;;;5074461;28;20037;-54
2022/12/29 06:20:41;;;;;;;104.20;56.58;;;;;;;;;;5079193;28;20028;-54
2022/12/29 06:23:07;;;;;;;65.63;40.92;;;4.70;99.90;;;;;;5062422;28;20025;-55
2022/12/29 06:25:35;;;;;;;59.58;35.88;;;;;;;;;;5046161;28;20495;-52
2022/12/29 06:28:02;;;;;;;57.33;36.15;;;;;;;;;;5087641;28;20456;-57
2022/12/29 06:30:27;;;;;;;68.70;38.65;;;4.60;99.90;;;;;;5076610;28;20028;-55
2022/12/29 06:32:54;;;;;;;58.58;35.80;;;4.70;99.90;;;;;;5068974;28;20062;-53
2022/12/29 06:35:22;;;;;;;59.33;37.03;;;4.70;99.90;;;;;;5067904;28;20471;-54
2022/12/29 06:37:48;;;;;;;49.80;33.40;;;4.90;99.90;;;;;;5035417;28;20492;-53
2022/12/29 06:40:13;;;;;;;48.60;31.20;;;5.00;99.90;;;;;;5054099;28;20052;-54
2022/12/29 06:42:39;;;;;;;56.38;34.38;;;4.80;99.90;;;;;;5051952;28;20064;-53
2022/12/29 06:45:07;;;;;;;52.67;34.47;;;4.70;99.90;;;;;;5054071;28;20068;-54
2022/12/29 06:47:34;;;;;;;44.85;29.40;;;4.70;99.90;;;;;;5054215;28;20033;-54
2022/12/29 06:50:00;;;;;;;45.53;29.55;;;4.70;99.90;;;;;;5053710;28;20025;-53
2022/12/29 06:52:26;;;;;;;54.63;31.30;;;4.40;99.90;;;;;;5063608;28;20562;-53
2022/12/29 06:54:52;;;;;;;45.20;30.27;;;;;;;;;;5035115;28;20204;-53
2022/12/29 06:57:18;;;;;;;46.33;32.00;;;;;;;;;;5052189;28;20032;-53
2022/12/29 06:59:44;;;;;;;56.65;38.55;;;;;;;;;;5053706;28;20024;-55
2022/12/29 07:02:19;;;;;;;51.47;36.95;;;;;;;;;;5053780;28;20033;-54
2022/12/29 07:04:45;;;;;;;44.30;31.80;;;;;;;;;;5053461;28;20045;-54
2022/12/29 07:07:11;;;;;;;41.45;29.27;;;12.30;99.90;;;;;;5053834;28;20052;-54
2022/12/29 07:09:37;;;;;;;33.58;23.60;;;12.00;99.90;;;;;;5052469;28;20425;-55
2022/12/29 07:12:03;;;;;;;37.05;27.02;;;12.00;99.90;;;;;;5035037;28;20040;-55
2022/12/29 07:14:29;;;;;;;36.97;28.20;;;;;;;;;;5046041;28;20385;-54
2022/12/29 07:16:54;;;;;;;38.28;28.02;;;15.10;99.90;;;;;;5048138;28;20041;-54
2022/12/29 07:19:20;;;;;;;35.53;27.42;;;15.00;99.90;;;;;;5047419;28;20022;-54
2022/12/29 07:21:46;;;;;;;38.00;28.08;;;;;;;;;;5033418;28;20033;-54
2022/12/29 07:24:12;;;;;;;42.17;31.38;;;15.70;99.90;;;;;;5047079;28;20160;-55
2022/12/29 07:26:38;;;;;;;43.40;33.35;;;17.20;98.30;;;;;;5033248;28;20104;-54
2022/12/29 07:29:04;;;;;;;44.97;34.05;;;;;;;;;;5033228;28;20124;-54
2022/12/29 07:31:30;;;;;;;48.83;34.95;;;15.50;96.30;;;;;;5033402;28;20026;-54
2022/12/29 07:33:56;;;;;;;55.13;39.60;;;;;;;;;;5033102;28;20025;-54
2022/12/29 07:36:22;;;;;;;51.58;39.60;;;;;;;;;;5033485;28;20053;-54
2022/12/29 07:38:48;;;;;;;51.38;37.67;;;;;;;;;;5032858;28;20040;-56
2022/12/29 07:41:15;;;;;;;47.60;35.60;;;;;;;;;;5041958;28;20046;-54
2022/12/29 07:43:41;;;;;;;50.00;37.80;;;;;;;;;;5061124;28;20020;-54
2022/12/29 07:46:08;;;;;;;46.95;36.67;;;;;;;;;;5056685;28;20072;-54
2022/12/29 07:48:35;;;;;;;48.03;35.90;;;13.00;99.90;;;;;;5061760;28;20369;-54
2022/12/29 07:51:01;;;;;;;48.08;35.47;;;13.60;99.90;;;;;;5073147;28;20040;-52
2022/12/29 07:53:27;;;;;;;43.60;34.08;;;12.90;99.70;;;;;;5070717;28;20106;-53
2022/12/29 07:55:52;;;;;;;49.13;34.80;;;14.00;99.70;;;;;;5070709;28;20577;-55
2022/12/29 07:58:18;;;;;;;65.70;33.97;;;12.00;99.90;;;;;;5054569;28;20045;-53
2022/12/29 08:00:44;;;;;;;69.68;40.45;;;10.70;99.90;;;;;;5033370;28;20069;-54
2022/12/29 08:03:10;;;;;;;43.15;29.15;;;10.90;99.90;;;;;;5050886;28;20036;-52
2022/12/29 08:05:36;;;;;;;36.22;23.38;;;11.20;99.90;;;;;;5050598;28;20043;-54
2022/12/29 08:08:01;;;;;;;48.35;32.08;;;11.90;99.90;;;;;;5050519;28;20766;-52
2022/12/29 08:10:27;;;;;;;52.42;33.42;;;10.70;99.90;;;;;;5034003;28;20037;-54
2022/12/29 08:12:53;;;;;;;59.28;37.15;;;;;;;;;;5032457;28;20034;-53
2022/12/29 08:15:19;;;;;;;50.58;37.10;;;;;;;;;;5030789;28;20044;-54
2022/12/29 08:17:45;;;;;;;52.63;36.60;;;;;;;;;;5030477;28;20083;-54
2022/12/29 08:20:11;;;;;;;52.15;36.13;;;11.30;99.90;;;;;;5030740;28;20046;-53
2022/12/29 08:22:37;;;;;;;44.20;32.75;;;10.90;99.90;;;;;;5014228;28;20040;-55
2022/12/29 08:25:03;;;;;;;38.45;28.35;;;10.80;99.90;;;;;;5041408;28;20512;-52
2022/12/29 08:27:29;;;;;;;41.67;29.45;;;10.60;99.90;;;;;;5017763;28;20064;-52
2022/12/29 08:29:55;;;;;;;35.33;26.90;;;10.70;99.90;;;;;;5052415;28;20105;-52
2022/12/29 08:32:20;;;;;;;35.88;27.58;;;10.70;99.90;;;;;;5070879;28;20032;-56
2022/12/29 08:34:46;;;;;;;47.58;31.15;;;12.40;99.90;;;;;;5082794;28;20033;-55
2022/12/29 08:37:12;;;;;;;30.58;26.77;;;;;;;;;;5077179;28;20025;-51
2022/12/29 08:39:39;;;;;;;43.95;32.05;;;15.70;99.90;;;;;;5073266;28;20031;-53
2022/12/29 08:42:06;;;;;;;51.63;39.63;;;;;;;;;;5092535;28;20028;-55
2022/12/29 08:44:31;;;;;;;24.92;19.35;;;16.60;99.90;;;;;;5092986;28;20036;-56
2022/12/29 08:46:57;;;;;;;25.95;19.65;;;17.60;99.90;;;;;;5093154;28;20495;-55
2022/12/29 08:49:23;;;;;;;29.05;20.88;;;17.50;99.90;;;;;;5092762;28;20070;-56
2022/12/29 08:51:49;;;;;;;32.85;21.90;;;;;;;;;;5092385;28;20028;-53
2022/12/29 08:54:15;;;;;;;32.60;22.95;;;;;;;;;;5107325;28;20054;-54
2022/12/29 08:56:41;;;;;;;26.77;19.67;;;;;;;;;;5113578;28;20031;-56
2022/12/29 08:59:07;;;;;;;23.05;16.48;;;;;;;;;;5112803;28;20035;-52
2022/12/29 09:01:36;;;;;;;20.42;14.82;;;;;;;;;;5113508;28;20028;-55
2022/12/29 09:04:02;;;;;;;24.85;17.35;;;14.20;99.90;;;;;;5114486;28;20028;-57
2022/12/29 09:06:28;;;;;;;28.38;18.25;;;14.20;99.90;;;;;;5117169;28;20399;-55
2022/12/29 09:08:55;;;;;;;23.55;17.08;;;;;;;;;;5116580;28;20035;-53
2022/12/29 09:11:24;;;;;;;22.70;20.38;;;13.50;99.90;;;;;;5108534;28;20016;-50
2022/12/29 09:13:50;;;;;;;21.98;16.77;;;;;;;;;;5060242;28;20399;-56
2022/12/29 09:16:17;;;;;;;25.00;18.27;;;;;;;;;;5096266;28;20566;-55
2022/12/29 09:18:43;;;;;;;19.02;16.48;;;16.90;99.90;;;;;;5096226;28;20028;-57
2022/12/29 09:21:11;;;;;;;21.02;17.02;;;18.50;99.90;;;;;;5089802;28;20016;-57
2022/12/29 09:23:37;;;;;;;17.73;15.75;;;21.70;99.90;;;;;;5009394;28;20061;-56
2022/12/29 09:26:03;;;;;;;17.42;14.77;;;;;;;;;;4981268;28;20041;-48
2022/12/29 09:28:30;;;;;;;19.00;15.38;;;;;;;;;;5012720;28;20072;-52
2022/12/29 09:30:57;;;;;;;17.80;14.13;;;;;;;;;;5002877;28;20042;-52
2022/12/29 09:33:23;;;;;;;23.92;21.52;;;;;;;;;;4993653;28;20035;-54
2022/12/29 09:35:54;;;;;;;23.20;18.23;;;20.70;97.70;;;;;;4976218;28;20038;-52
2022/12/29 09:38:21;;;;;;;19.27;17.38;;;;;;;;;;5003030;28;20042;-55
2022/12/29 09:41:00;;;;;;;19.45;16.65;;;23.70;99.90;;;;;;4993537;28;20035;-54
2022/12/29 09:43:40;;;;;;;19.73;15.52;;;24.80;94.50;;;;;;4986463;28;20081;-56
2022/12/29 09:46:25;;;;;;;17.02;13.77;;;25.90;92.90;;;;;;4994738;28;20107;-58
2022/12/29 09:49:03;;;;;;;16.08;11.68;;;25.90;93.00;;;;;;4997438;28;20081;-53
2022/12/29 09:51:31;;;;;;;16.45;14.75;;;25.70;91.10;;;;;;4991140;28;20054;-52
2022/12/29 09:54:00;;;;;;;12.88;11.52;;;24.80;90.80;;;;;;5000440;28;20219;-53
2022/12/29 09:56:27;;;;;;;16.55;14.98;;;24.20;90.50;;;;;;5044739;28;20489;-56
2022/12/29 09:59:24;;;;;;;11.65;10.45;;;23.10;90.10;;;;;;5003613;28;20041;-52
2022/12/29 10:01:59;;;;;;;11.35;10.35;;;23.60;91.00;;;;;;5006232;28;20183;-49
2022/12/29 10:04:28;;;;;;;10.68;9.85;;;23.50;91.00;;;;;;5027962;28;20069;-52
2022/12/29 10:07:02;;;;;;;9.80;8.80;;;23.00;90.40;;;;;;4996501;28;20038;-52
2022/12/29 10:09:56;;;;;;;10.73;9.70;;;23.00;90.50;;;;;;5030395;28;20033;-51
2022/12/29 10:12:28;;;;;;;9.40;8.60;;;23.10;90.40;;;;;;4981140;28;20053;-54
2022/12/29 10:14:58;;;;;;;8.18;7.38;;;22.90;90.40;;;;;;4969945;28;20038;-69
2022/12/29 10:17:35;;;;;;;6.95;6.35;;;23.00;90.50;;;;;;4970480;28;20042;-59
2022/12/29 10:20:03;;;;;;;6.63;5.93;;;23.00;90.20;;;;;;4970955;28;21498;-57
2022/12/29 10:22:38;;;;;;;6.15;5.55;;;23.70;90.40;;;;;;4970403;28;20027;-59
2022/12/29 10:25:11;;;;;;;6.28;5.22;;;;;;;;;;4969827;28;20047;-54
2022/12/29 10:27:37;;;;;;;8.13;6.00;;;;;;;;;;4970022;28;20118;-55
2022/12/29 10:30:04;;;;;;;11.20;9.30;;;24.70;99.90;;;;;;4989752;28;20489;-53
2022/12/29 10:32:34;;;;;;;5.82;4.80;;;24.40;87.90;;;;;;4992878;28;20035;-53
2022/12/29 10:35:11;;;;;;;6.10;4.95;;;23.50;89.30;;;;;;5010235;28;20041;-53
2022/12/29 10:37:52;;;;;;;6.03;4.65;;;23.30;89.50;;;;;;5010168;28;20049;-53
2022/12/29 10:40:26;;;;;;;5.28;4.78;;;23.50;89.20;;;;;;5009774;28;20429;-55
2022/12/29 10:42:57;;;;;;;6.05;5.13;;;;;;;;;;5009292;28;20034;-53
2022/12/29 10:45:31;;;;;;;4.37;3.97;;;24.20;86.30;;;;;;5009113;28;20132;-55
2022/12/29 10:48:23;;;;;;;7.80;4.75;;;24.00;87.10;;;;;;5010022;28;20064;-57
2022/12/29 10:50:53;;;;;;;4.40;4.00;;;23.80;87.40;;;;;;5091444;28;20439;-54
2022/12/29 10:53:27;;;;;;;8.10;4.93;;;26.10;86.40;;;;;;5091261;28;20123;-55
2022/12/29 10:55:53;;;;;;;13.60;5.65;;;26.30;87.30;;;;;;5088568;28;20065;-57
2022/12/29 10:58:20;;;;;;;7.50;4.32;;;;;;;;;;5088801;28;20069;-54
2022/12/29 11:00:52;;;;;;;7.07;5.40;;;28.10;82.60;;;;;;5091351;28;20032;-57
2022/12/29 11:03:36;;;;;;;;;;;28.40;84.00;;;;;;5089057;28;20040;-54
2022/12/29 11:06:21;;;;;;;12.75;7.93;;;28.50;84.20;;;;;;5091221;28;19916;-55
2022/12/29 11:08:58;;;;;;;6.20;5.13;;;28.70;83.20;;;;;;5087115;28;20028;-57
2022/12/29 11:11:33;;;;;;;8.23;6.35;;;27.80;81.10;;;;;;5090132;28;20089;-56
2022/12/29 11:14:03;;;;;;;11.80;6.45;;;;;;;;;;5088342;28;20028;-54
2022/12/29 11:16:33;;;;;;;22.27;7.35;;;26.30;81.50;;;;;;5090002;28;20115;-55
2022/12/29 11:18:59;;;;;;;7.05;4.10;;;25.40;83.60;;;;;;5090636;28;20053;-55
2022/12/29 11:21:31;;;;;;;12.82;5.75;;;24.50;81.80;;;;;;5090972;28;20028;-56
2022/12/29 11:24:03;;;;;;;6.60;5.38;;;24.00;83.30;;;;;;5090681;28;20032;-55
2022/12/29 11:26:30;;;;;;;10.15;7.32;;;23.50;84.10;;;;;;5051667;28;20036;-54
2022/12/29 11:29:08;;;;;;;9.48;6.88;;;23.50;85.90;;;;;;5088843;28;20114;-56
2022/12/29 11:31:45;;;;;;;13.10;5.90;;;24.10;84.70;;;;;;5091333;28;20133;-55
2022/12/29 11:34:18;;;;;;;3.80;2.83;;;;;;;;;;5032075;28;20035;-56
2022/12/29 11:36:45;;;;;;;49.33;8.98;;;;;;;;;;5087534;28;20078;-57
2022/12/29 11:39:30;;;;;;;9.55;5.50;;;25.70;97.40;;;;;;5089395;28;20371;-56
2022/12/29 11:41:57;;;;;;;8.80;3.72;;;25.80;80.60;;;;;;5088807;28;20031;-57
2022/12/29 11:44:23;;;;;;;9.57;6.45;;;26.10;78.80;;;;;;5083757;28;20093;-55
2022/12/29 11:46:51;;;;;;;10.75;4.55;;;;;;;;;;5090231;28;20040;-56
2022/12/29 11:49:24;;;;;;;10.88;5.40;;;25.10;78.60;;;;;;5090184;28;20083;-54
2022/12/29 11:51:54;;;;;;;20.63;9.30;;;24.40;81.70;;;;;;5043729;28;20037;-57
2022/12/29 11:54:38;;;;;;;11.18;5.20;;;;;;;;;;5046299;28;20053;-55
2022/12/29 11:57:15;;;;;;;5.93;4.45;;;23.30;99.90;;;;;;4982636;28;20050;-54
2022/12/29 11:59:54;;;;;;;17.95;9.80;;;22.90;82.60;;;;;;5042940;28;20542;-56
2022/12/29 12:02:21;;;;;;;13.30;8.18;;;;;;;;;;5022953;28;20041;-55
2022/12/29 12:04:48;;;;;;;12.45;6.57;;;;;;;;;;5045276;28;20476;-55
2022/12/29 12:07:20;;;;;;;6.03;4.70;;;22.10;98.60;;;;;;5045018;28;20136;-57
2022/12/29 12:09:54;;;;;;;9.10;5.13;;;21.90;94.70;;;;;;5046412;28;20115;-54
2022/12/29 12:12:27;;;;;;;10.68;5.57;;;21.70;86.80;;;;;;5048223;28;20029;-52
2022/12/29 12:14:59;;;;;;;7.15;5.78;;;21.60;91.10;;;;;;5023522;28;20500;-51
2022/12/29 12:17:49;;;;;;;26.77;13.13;;;;;;;;;;5037413;28;20041;-57
2022/12/29 12:20:49;;;;;;;19.98;11.98;;;21.10;98.50;;;;;;5039357;28;20025;-55
2022/12/29 12:23:28;;;;;;;12.57;8.65;;;;;;;;;;5055050;28;20037;-51
2022/12/29 12:26:12;;;;;;;17.08;8.93;;;20.70;96.90;;;;;;5065577;28;20040;-55
2022/12/29 12:28:42;;;;;;;20.55;13.85;;;;;;;;;;5068319;28;20078;-53
2022/12/29 12:53:38;;;;;;;45.03;15.75;;;19.20;95.20;;;;;;5100238;27;20491;-61
2022/12/29 12:56:24;;;;;;;34.85;18.60;;;19.50;92.70;;;;;;5044302;28;20527;-61
2022/12/29 12:59:03;;;;;;;39.38;23.65;;;18.80;91.20;;;;;;5045886;28;20039;-60
2022/12/29 13:01:41;;;;;;;56.60;24.20;;;18.90;92.90;;;;;;5042472;28;20068;-60
2022/12/29 13:04:37;;;;;;;60.70;30.98;;;18.80;92.00;;;;;;5044109;28;20021;-61
2022/12/29 13:07:05;;;;;;;60.80;31.75;;;18.70;92.40;;;;;;5012395;28;20031;-61
2022/12/29 13:10:14;;;;;;;51.80;27.08;;;18.60;91.90;;;;;;5044758;28;20078;-61
2022/12/29 13:12:43;;;;;;;50.58;27.98;;;18.40;92.00;;;;;;5045341;28;20366;-60
2022/12/29 13:15:41;;;;;;;43.75;25.52;;;18.50;96.00;;;;;;5045675;28;20098;-59
2022/12/29 13:18:27;;;;;;;39.05;23.05;;;18.30;92.50;;;;;;5044810;28;20087;-60
2022/12/29 13:21:03;;;;;;;41.78;24.42;;;18.30;95.90;;;;;;5040514;28;20084;-61
2022/12/29 13:23:41;;;;;;;43.85;25.55;;;18.20;93.00;;;;;;5028016;28;20128;-60
2022/12/29 13:26:20;;;;;;;53.58;26.60;;;18.10;92.40;;;;;;5043337;28;20120;-60
2022/12/29 13:28:58;;;;;;;27.38;18.02;;;18.00;92.70;;;;;;5044188;28;20391;-51
2022/12/29 13:31:58;;;;;;;28.25;17.48;;;17.80;93.10;;;;;;5043275;28;20032;-55
2022/12/29 13:34:32;;;;;;;45.85;23.95;;;17.90;93.20;;;;;;5039981;28;20041;-56
2022/12/29 13:37:12;;;;;;;56.60;25.60;;;18.00;94.60;;;;;;5008354;28;20132;-62
2022/12/29 13:39:42;;;;;;;41.30;21.45;;;17.90;96.50;;;;;;5043954;28;20041;-52
2022/12/29 13:42:11;;;;;;;109.55;45.83;;;17.90;96.10;;;;;;5042488;28;20044;-56
2022/12/29 13:44:59;;;;;;;85.30;37.70;;;17.80;95.80;;;;;;5033183;28;20064;-62
2022/12/29 13:47:33;;;;;;;225.43;64.35;;;17.50;97.60;;;;;;5042757;28;20040;-61
2022/12/29 13:50:00;;;;;;;74.93;34.92;;;;;;;;;;5031298;28;20032;-61
2022/12/29 13:52:38;;;;;;;168.32;61.85;;;;;;;;;;5032409;28;20041;-60
2022/12/29 13:55:23;;;;;;;114.68;44.05;;;;;;;;;;5026828;28;20026;-60
2022/12/29 13:57:49;;;;;;;59.05;31.08;;;;;;;;;;5027398;28;20436;-61
2022/12/29 14:00:22;;;;;;;70.25;33.80;;;;;;;;;;5021933;28;20087;-61
2022/12/29 14:02:53;;;;;;;35.33;23.23;;;;;;;;;;5024592;28;20046;-61
2022/12/29 14:05:22;;;;;;;100.25;59.95;;;16.90;99.90;;;;;;5025538;28;20508;-61
2022/12/29 14:07:56;;;;;;;56.08;37.97;;;16.60;99.90;;;;;;5023322;28;20084;-60